Time;durP1;ratioP1;P1;durP2;ratioP2;P2;SDS_P1;SDS_P2;PMS_P1;PMS_P2;Temp;Humidity;BMP_temperature;BMP_pressure;BME280_temperature;BME280_humidity;BME280_pressure;Samples;Min_cycle;Max_cycle;Signal;HPM_P1;HPM_P2
2021/08/22 00:01:14;;;;;;;27.67;23.33;;;17.90;99.90;;;;;;6218975;22;20093;-81
2021/08/22 00:03:40;;;;;;;31.50;24.80;;;17.90;99.90;;;;;;6245418;22;20020;-82
2021/08/22 00:06:06;;;;;;;32.65;24.38;;;17.90;99.90;;;;;;6238113;22;20015;-82
2021/08/22 00:08:33;;;;;;;29.90;24.50;;;17.90;99.90;;;;;;6191766;22;20095;-81
2021/08/22 00:11:03;;;;;;;32.92;25.17;;;17.90;99.90;;;;;;6193782;22;20069;-80
2021/08/22 00:13:29;;;;;;;30.27;24.17;;;17.90;99.90;;;;;;6243486;22;20012;-78
2021/08/22 00:15:55;;;;;;;33.53;25.65;;;17.90;99.90;;;;;;6241141;22;20099;-79
2021/08/22 00:18:21;;;;;;;32.80;25.33;;;17.80;99.90;;;;;;6190344;22;20027;-82
2021/08/22 00:20:47;;;;;;;36.50;26.90;;;17.90;99.90;;;;;;6218184;22;20352;-82
2021/08/22 00:23:13;;;;;;;34.42;26.38;;;17.90;99.90;;;;;;6220329;22;20015;-82
2021/08/22 00:25:38;;;;;;;32.08;26.15;;;17.90;99.90;;;;;;6245641;22;20015;-83
2021/08/22 00:28:04;;;;;;;34.33;25.75;;;17.90;99.90;;;;;;6245852;22;20050;-84
2021/08/22 00:30:30;;;;;;;35.45;27.15;;;17.90;99.90;;;;;;6271408;22;20022;-82
2021/08/22 00:32:56;;;;;;;35.13;27.23;;;17.80;99.90;;;;;;6250004;22;20081;-82
2021/08/22 00:35:22;;;;;;;35.13;25.98;;;17.80;99.90;;;;;;6203020;22;20022;-82
2021/08/22 00:37:48;;;;;;;34.75;28.38;;;17.80;99.90;;;;;;6244702;22;20016;-80
2021/08/22 00:40:14;;;;;;;35.92;28.15;;;17.80;99.90;;;;;;6244205;22;20015;-82
2021/08/22 00:42:40;;;;;;;36.08;28.20;;;17.80;99.90;;;;;;6245296;22;20154;-82
2021/08/22 00:45:07;;;;;;;36.70;29.17;;;17.80;99.90;;;;;;6251710;22;20007;-83
2021/08/22 00:47:42;;;;;;;34.58;27.90;;;17.80;99.90;;;;;;6249922;22;20016;-81
2021/08/22 00:50:15;;;;;;;35.03;28.98;;;17.80;99.90;;;;;;6274622;22;20107;-83
2021/08/22 00:52:40;;;;;;;39.03;29.90;;;17.70;99.90;;;;;;6286470;22;20069;-83
2021/08/22 00:55:08;;;;;;;39.53;30.17;;;17.80;99.90;;;;;;6225277;22;20011;-82
2021/08/22 00:57:35;;;;;;;38.50;28.52;;;17.70;99.90;;;;;;6276363;22;20348;-83
2021/08/22 01:00:13;;;;;;;36.17;30.50;;;17.80;99.90;;;;;;6250479;22;20072;-84
2021/08/22 01:02:56;;;;;;;37.67;30.58;;;17.80;99.90;;;;;;6226012;22;20062;-85
2021/08/22 01:06:00;;;;;;;41.22;30.75;;;17.80;99.90;;;;;;6248229;22;20012;-82
2021/08/22 01:08:32;;;;;;;41.08;31.15;;;17.80;99.90;;;;;;6210713;22;20042;-79
2021/08/22 01:11:19;;;;;;;38.25;29.60;;;17.80;99.90;;;;;;6255099;22;20016;-82
2021/08/22 01:13:56;;;;;;;38.13;31.35;;;17.80;99.90;;;;;;6219364;22;20016;-80
2021/08/22 01:16:26;;;;;;;39.35;29.90;;;17.80;99.90;;;;;;6252879;22;20046;-79
2021/08/22 01:18:57;;;;;;;43.95;31.77;;;17.80;99.90;;;;;;6239171;22;20463;-78
2021/08/22 01:21:24;;;;;;;37.15;29.50;;;17.90;99.90;;;;;;6242943;22;20007;-80
2021/08/22 01:24:01;;;;;;;41.15;30.23;;;17.80;99.90;;;;;;6219841;22;20016;-80
2021/08/22 01:26:31;;;;;;;38.70;31.25;;;17.80;99.90;;;;;;6252959;22;20015;-79
2021/08/22 01:28:59;;;;;;;37.65;30.30;;;17.90;99.90;;;;;;6274431;22;20046;-79
2021/08/22 01:31:32;;;;;;;38.35;30.67;;;17.80;99.90;;;;;;6241596;22;20019;-82
2021/08/22 01:34:00;;;;;;;40.13;31.13;;;17.90;99.90;;;;;;6243939;22;20011;-80
2021/08/22 01:36:26;;;;;;;36.67;28.73;;;17.90;99.90;;;;;;6239684;22;20355;-79
2021/08/22 01:38:54;;;;;;;40.42;30.92;;;17.90;99.90;;;;;;6193680;22;20325;-79
2021/08/22 01:41:23;;;;;;;37.38;30.15;;;17.90;99.90;;;;;;6243404;22;20020;-79
2021/08/22 01:43:51;;;;;;;39.78;30.42;;;17.90;99.90;;;;;;6219879;22;20011;-81
2021/08/22 01:46:19;;;;;;;37.70;29.80;;;17.90;99.90;;;;;;6269171;22;20444;-81
2021/08/22 01:48:46;;;;;;;40.05;31.50;;;17.90;99.90;;;;;;6268470;22;20043;-83
2021/08/22 01:51:12;;;;;;;39.28;31.52;;;17.90;99.90;;;;;;6218539;22;20137;-80
2021/08/22 01:53:38;;;;;;;39.05;31.50;;;17.90;99.90;;;;;;6192371;22;20447;-81
2021/08/22 01:56:04;;;;;;;38.05;30.95;;;17.90;99.90;;;;;;6219983;22;20019;-80
2021/08/22 01:58:31;;;;;;;36.58;31.30;;;17.90;99.90;;;;;;6193840;22;20019;-82
2021/08/22 02:00:57;;;;;;;34.70;30.35;;;17.90;99.90;;;;;;6242984;22;20093;-80
2021/08/22 02:03:32;;;;;;;35.95;29.85;;;18.00;99.90;;;;;;6245747;22;20008;-81
2021/08/22 02:06:04;;;;;;;37.83;29.52;;;18.00;99.90;;;;;;6252381;22;20007;-81
2021/08/22 02:08:31;;;;;;;34.05;29.48;;;18.10;99.90;;;;;;6253287;22;20070;-82
2021/08/22 02:11:28;;;;;;;36.58;28.50;;;18.10;99.90;;;;;;6230604;22;20087;-81
2021/08/22 02:13:56;;;;;;;30.90;27.05;;;18.20;99.90;;;;;;6250958;22;20055;-80
2021/08/22 02:16:27;;;;;;;34.05;29.33;;;18.20;99.90;;;;;;6273813;22;20011;-81
2021/08/22 02:18:55;;;;;;;34.08;28.35;;;18.20;99.90;;;;;;6245140;22;20015;-84
2021/08/22 02:21:23;;;;;;;42.40;31.83;;;18.20;99.90;;;;;;6240416;22;20308;-80
2021/08/22 02:23:52;;;;;;;57.90;37.80;;;18.20;99.90;;;;;;6243173;22;20225;-84
2021/08/22 02:26:18;;;;;;;51.80;35.25;;;18.20;99.90;;;;;;6215113;22;20027;-86
2021/08/22 02:28:55;;;;;;;55.30;37.50;;;18.10;99.90;;;;;;6215007;22;20026;-86
2021/08/22 02:31:22;;;;;;;44.25;31.27;;;18.10;99.90;;;;;;6238665;22;20062;-86
2021/08/22 02:33:48;;;;;;;45.92;35.72;;;18.00;99.90;;;;;;6213539;22;20016;-87
2021/08/22 02:36:14;;;;;;;54.17;38.95;;;18.00;99.90;;;;;;6165164;22;20018;-85
2021/08/22 02:38:40;;;;;;;62.05;40.83;;;18.00;99.90;;;;;;6204446;22;20028;-82
2021/08/22 02:41:06;;;;;;;40.83;32.22;;;17.90;99.90;;;;;;6124392;23;20241;-83
2021/08/22 02:43:32;;;;;;;46.75;34.33;;;17.90;99.90;;;;;;6115757;23;20024;-83
2021/08/22 02:45:58;;;;;;;47.30;36.47;;;17.80;99.90;;;;;;6143087;23;20010;-84
2021/08/22 02:48:23;;;;;;;65.72;42.00;;;17.80;99.90;;;;;;6141806;23;20013;-83
2021/08/22 02:50:49;;;;;;;59.03;40.55;;;17.80;99.90;;;;;;6116155;23;20023;-83
2021/08/22 02:53:15;;;;;;;83.28;46.85;;;17.80;99.90;;;;;;6091971;23;20105;-83
2021/08/22 02:55:41;;;;;;;96.10;48.42;;;17.80;99.90;;;;;;6115130;23;20101;-83
2021/08/22 02:58:07;;;;;;;59.50;41.13;;;17.80;99.90;;;;;;6095021;23;20017;-83
2021/08/22 03:00:33;;;;;;;90.47;44.72;;;17.70;99.90;;;;;;6096193;23;20018;-84
2021/08/22 03:02:59;;;;;;;53.00;39.78;;;17.70;99.90;;;;;;6144245;23;20546;-85
2021/08/22 03:05:25;;;;;;;77.70;43.58;;;17.70;99.90;;;;;;6119442;23;20017;-84
2021/08/22 03:07:51;;;;;;;64.20;37.92;;;17.60;99.90;;;;;;6116088;23;20449;-83
2021/08/22 03:10:16;;;;;;;80.32;40.65;;;17.70;99.90;;;;;;6141456;23;20018;-85
2021/08/22 03:12:42;;;;;;;55.60;38.42;;;17.60;99.90;;;;;;6093314;23;20044;-84
2021/08/22 03:15:09;;;;;;;52.35;33.95;;;17.60;99.90;;;;;;6140225;23;20626;-83
2021/08/22 03:17:36;;;;;;;43.80;32.83;;;17.60;99.90;;;;;;6141238;23;20021;-84
2021/08/22 03:20:04;;;;;;;61.53;36.55;;;17.60;99.90;;;;;;6118415;23;20335;-83
2021/08/22 03:22:31;;;;;;;47.25;36.28;;;17.60;99.90;;;;;;6142395;23;20017;-83
2021/08/22 03:24:59;;;;;;;126.55;45.95;;;17.50;99.90;;;;;;6144122;23;20458;-83
2021/08/22 03:27:25;;;;;;;49.22;36.05;;;17.50;99.90;;;;;;6144588;23;20016;-84
2021/08/22 03:29:51;;;;;;;66.55;42.90;;;17.50;99.90;;;;;;6140430;23;20021;-83
2021/08/22 03:32:17;;;;;;;74.72;45.05;;;17.50;99.90;;;;;;6142217;23;20024;-86
2021/08/22 03:34:43;;;;;;;70.72;43.60;;;17.50;99.90;;;;;;6117960;23;20013;-86
2021/08/22 03:37:09;;;;;;;115.65;45.28;;;17.40;99.90;;;;;;6139683;23;20051;-87
2021/08/22 03:39:35;;;;;;;42.67;34.63;;;17.50;99.90;;;;;;6144181;23;20446;-86
2021/08/22 03:42:01;;;;;;;73.03;44.97;;;17.40;99.90;;;;;;6116658;23;20333;-88
2021/08/22 03:44:27;;;;;;;65.25;42.88;;;17.40;99.90;;;;;;6119094;23;20041;-86
2021/08/22 03:46:52;;;;;;;120.53;47.65;;;17.40;99.90;;;;;;6118128;23;20010;-87
2021/08/22 03:49:18;;;;;;;44.08;35.25;;;17.40;99.90;;;;;;6120664;23;20454;-87
2021/08/22 03:51:44;;;;;;;88.68;45.08;;;17.40;99.90;;;;;;6118585;23;20020;-88
2021/08/22 03:54:10;;;;;;;50.97;38.60;;;17.40;99.90;;;;;;6118554;23;20013;-86
2021/08/22 03:56:36;;;;;;;80.65;45.03;;;17.40;99.90;;;;;;6116090;23;20013;-86
2021/08/22 03:59:07;;;;;;;63.90;42.50;;;17.40;99.90;;;;;;6142189;23;20453;-86
2021/08/22 04:01:36;;;;;;;100.03;49.40;;;17.40;99.90;;;;;;6115353;23;20402;-88
2021/08/22 04:04:04;;;;;;;124.15;53.92;;;17.40;99.90;;;;;;6137455;23;20022;-86
2021/08/22 04:06:30;;;;;;;434.67;73.68;;;17.40;99.90;;;;;;6138752;23;20021;-86
2021/08/22 04:08:59;;;;;;;59.30;41.33;;;17.30;99.90;;;;;;6140105;23;20459;-88
2021/08/22 04:11:29;;;;;;;106.45;51.65;;;17.30;99.90;;;;;;6121467;23;20323;-89
2021/08/22 04:13:55;;;;;;;68.65;44.08;;;17.30;99.90;;;;;;6131023;23;20054;-87
2021/08/22 04:16:21;;;;;;;62.53;42.30;;;17.30;99.90;;;;;;6127222;23;20033;-87
2021/08/22 04:18:47;;;;;;;76.80;44.70;;;17.20;99.90;;;;;;6130148;23;20269;-87
2021/08/22 04:21:13;;;;;;;79.85;47.08;;;17.30;99.90;;;;;;6154376;23;20040;-85
2021/08/22 04:23:39;;;;;;;52.63;40.50;;;17.20;99.90;;;;;;6129909;23;20104;-87
2021/08/22 04:26:07;;;;;;;60.83;41.92;;;17.30;99.90;;;;;;6129669;23;20021;-88
2021/08/22 04:28:33;;;;;;;80.40;45.83;;;17.30;99.90;;;;;;6148212;23;20021;-89
2021/08/22 04:30:59;;;;;;;66.15;43.42;;;17.20;99.90;;;;;;6149553;23;20017;-88
2021/08/22 04:33:25;;;;;;;77.90;47.28;;;17.20;99.90;;;;;;6156002;23;20019;-91
2021/08/22 04:35:51;;;;;;;75.65;47.83;;;17.20;99.90;;;;;;6105714;23;20013;-87
2021/08/22 04:38:17;;;;;;;102.25;53.17;;;17.20;99.90;;;;;;6128252;23;20087;-86
2021/08/22 04:40:43;;;;;;;82.60;50.80;;;17.20;99.90;;;;;;6143327;23;20016;-88
2021/08/22 04:43:09;;;;;;;83.15;48.63;;;17.20;99.90;;;;;;6121591;23;20017;-88
2021/08/22 04:45:34;;;;;;;99.88;52.30;;;17.20;99.90;;;;;;6125985;23;20017;-87
2021/08/22 04:48:00;;;;;;;81.88;49.63;;;17.20;99.90;;;;;;6130112;23;20059;-89
2021/08/22 04:50:26;;;;;;;96.05;51.83;;;17.20;99.90;;;;;;6132808;23;20014;-87
2021/08/22 04:52:52;;;;;;;89.00;54.30;;;17.10;99.90;;;;;;6108543;23;20108;-87
2021/08/22 04:55:18;;;;;;;87.30;50.03;;;17.20;99.90;;;;;;6134524;23;20009;-89
2021/08/22 04:57:43;;;;;;;81.00;52.08;;;17.10;99.90;;;;;;6125729;23;20021;-88
2021/08/22 05:00:10;;;;;;;71.93;47.80;;;17.10;99.90;;;;;;6144662;23;20040;-87
2021/08/22 05:02:36;;;;;;;80.43;50.25;;;17.10;99.90;;;;;;6125056;23;20037;-87
2021/08/22 05:05:03;;;;;;;62.22;45.55;;;17.10;99.90;;;;;;6097614;23;20468;-87
2021/08/22 05:07:28;;;;;;;66.72;42.47;;;17.10;99.90;;;;;;6096551;23;20498;-87
2021/08/22 05:09:54;;;;;;;153.73;56.42;;;17.10;99.90;;;;;;6121413;23;20239;-87
2021/08/22 05:12:20;;;;;;;66.93;43.33;;;17.10;99.90;;;;;;6122555;23;20017;-87
2021/08/22 05:14:46;;;;;;;126.63;58.53;;;17.20;99.90;;;;;;6119984;23;20013;-83
2021/08/22 05:17:12;;;;;;;81.78;50.28;;;17.20;99.90;;;;;;6145620;23;20009;-81
2021/08/22 05:19:38;;;;;;;181.35;64.63;;;17.20;99.90;;;;;;6146583;23;20085;-83
2021/08/22 05:22:04;;;;;;;94.90;52.85;;;17.20;99.90;;;;;;6121347;23;20017;-83
2021/08/22 05:24:30;;;;;;;87.63;48.08;;;17.20;99.90;;;;;;6143274;23;20496;-84
2021/08/22 05:26:56;;;;;;;70.40;46.38;;;17.20;99.90;;;;;;6119958;23;20206;-84
2021/08/22 05:29:22;;;;;;;84.05;51.28;;;17.20;99.90;;;;;;6142726;23;20041;-83
2021/08/22 05:31:48;;;;;;;74.28;46.83;;;17.20;99.90;;;;;;6147228;23;20214;-83
2021/08/22 05:34:15;;;;;;;63.72;43.05;;;17.10;99.90;;;;;;6099053;23;20017;-83
2021/08/22 05:36:42;;;;;;;70.13;43.90;;;17.20;99.90;;;;;;6124985;23;20481;-84
2021/08/22 05:39:10;;;;;;;124.00;54.40;;;17.20;99.90;;;;;;6151230;23;20492;-84
2021/08/22 05:41:36;;;;;;;61.15;42.85;;;17.10;99.90;;;;;;6153034;23;20014;-84
2021/08/22 05:44:02;;;;;;;85.63;46.03;;;17.10;99.90;;;;;;6156591;23;20014;-85
2021/08/22 05:46:28;;;;;;;63.28;40.13;;;17.10;99.90;;;;;;6152682;23;20108;-85
2021/08/22 05:48:54;;;;;;;62.88;42.90;;;17.20;99.90;;;;;;6128359;23;20029;-85
2021/08/22 05:51:21;;;;;;;155.73;50.72;;;17.20;99.90;;;;;;6128726;23;20033;-85
2021/08/22 05:53:48;;;;;;;80.82;46.83;;;17.20;99.90;;;;;;6157124;23;20045;-85
2021/08/22 05:56:15;;;;;;;148.65;54.58;;;17.20;99.90;;;;;;6132234;23;20064;-85
2021/08/22 05:58:41;;;;;;;118.88;55.53;;;17.20;99.90;;;;;;6158811;23;20505;-85
2021/08/22 06:01:07;;;;;;;56.20;42.40;;;17.20;99.90;;;;;;6155139;23;20018;-85
2021/08/22 06:03:34;;;;;;;78.88;48.38;;;17.20;99.90;;;;;;6155766;23;20016;-85
2021/08/22 06:06:05;;;;;;;109.32;51.65;;;17.20;99.90;;;;;;6128235;23;20364;-85
2021/08/22 06:08:31;;;;;;;69.20;47.60;;;17.20;99.90;;;;;;6150210;23;20069;-85
2021/08/22 06:10:57;;;;;;;85.80;52.47;;;17.20;99.90;;;;;;6154034;23;20014;-86
2021/08/22 06:13:24;;;;;;;108.15;55.72;;;17.20;99.90;;;;;;6153812;23;20017;-86
2021/08/22 06:15:50;;;;;;;112.72;54.95;;;17.20;99.90;;;;;;6129547;23;20028;-85
2021/08/22 06:18:17;;;;;;;274.25;65.10;;;17.20;99.90;;;;;;6150925;23;20044;-85
2021/08/22 06:20:47;;;;;;;150.13;58.80;;;17.20;99.90;;;;;;6155411;23;20025;-85
2021/08/22 06:23:13;;;;;;;114.38;56.30;;;17.20;99.90;;;;;;6151422;23;20378;-85
2021/08/22 06:25:39;;;;;;;214.82;57.90;;;17.20;99.90;;;;;;6151229;23;20010;-85
2021/08/22 06:28:04;;;;;;;109.65;49.58;;;17.30;99.90;;;;;;6127937;23;20123;-85
2021/08/22 06:30:30;;;;;;;238.65;58.95;;;17.20;99.90;;;;;;6128515;23;20353;-85
2021/08/22 06:32:57;;;;;;;195.80;56.80;;;17.20;99.90;;;;;;6155166;23;20544;-85
2021/08/22 06:35:23;;;;;;;118.63;57.95;;;17.20;99.90;;;;;;6156172;23;20017;-86
2021/08/22 06:37:51;;;;;;;192.50;61.20;;;17.30;99.90;;;;;;6130643;23;20101;-86
2021/08/22 06:40:17;;;;;;;93.22;54.67;;;17.30;99.90;;;;;;6124746;23;20020;-85
2021/08/22 06:42:44;;;;;;;90.03;53.38;;;17.30;99.90;;;;;;6148565;23;20024;-86
2021/08/22 06:45:10;;;;;;;148.00;56.40;;;17.30;99.90;;;;;;6143446;23;20018;-86
2021/08/22 06:47:36;;;;;;;150.57;63.28;;;17.30;99.90;;;;;;6147321;23;20044;-86
2021/08/22 06:50:03;;;;;;;149.85;65.75;;;17.30;99.90;;;;;;6143335;23;20315;-87
2021/08/22 06:52:29;;;;;;;194.43;61.67;;;17.30;99.90;;;;;;6115514;23;20063;-88
2021/08/22 06:54:55;;;;;;;139.48;67.13;;;17.40;99.90;;;;;;6141162;23;20447;-86
2021/08/22 06:57:21;;;;;;;166.10;69.82;;;17.30;99.90;;;;;;6116380;23;20072;-87
2021/08/22 06:59:47;;;;;;;112.88;60.72;;;17.30;99.90;;;;;;6115747;23;20048;-86
2021/08/22 07:02:12;;;;;;;123.35;63.10;;;17.30;99.90;;;;;;6116544;23;20013;-87
2021/08/22 07:04:39;;;;;;;333.08;74.15;;;17.30;99.90;;;;;;6119231;23;20017;-87
2021/08/22 07:07:05;;;;;;;182.90;66.68;;;17.30;99.90;;;;;;6118348;23;20045;-86
2021/08/22 07:09:31;;;;;;;150.52;64.13;;;17.30;99.90;;;;;;6143384;23;20076;-86
2021/08/22 07:11:58;;;;;;;112.20;59.85;;;17.30;99.90;;;;;;6120567;23;20493;-85
2021/08/22 07:14:24;;;;;;;256.77;65.43;;;17.30;99.90;;;;;;6115052;23;20093;-86
2021/08/22 07:16:50;;;;;;;194.88;68.88;;;17.30;99.90;;;;;;6137589;23;20295;-86
2021/08/22 07:19:16;;;;;;;142.63;63.75;;;17.30;99.90;;;;;;6121292;23;20013;-87
2021/08/22 07:21:42;;;;;;;156.80;65.00;;;17.30;99.90;;;;;;6117229;23;20022;-85
2021/08/22 07:24:08;;;;;;;162.38;66.63;;;17.30;99.90;;;;;;6147663;23;20024;-85
2021/08/22 07:26:34;;;;;;;214.00;70.45;;;17.30;99.90;;;;;;6145398;23;20013;-83
2021/08/22 07:28:59;;;;;;;142.82;64.60;;;17.30;99.90;;;;;;6144845;23;20095;-85
2021/08/22 07:31:27;;;;;;;159.32;67.57;;;17.30;99.90;;;;;;6145094;23;20096;-85
2021/08/22 07:33:53;;;;;;;165.80;66.93;;;17.30;99.90;;;;;;6153322;23;20298;-85
2021/08/22 07:36:19;;;;;;;134.60;62.03;;;17.30;99.90;;;;;;6130967;23;20388;-84
2021/08/22 07:38:45;;;;;;;191.65;68.90;;;17.40;99.90;;;;;;6141181;23;20025;-85
2021/08/22 07:41:13;;;;;;;136.68;62.05;;;17.40;99.90;;;;;;6152560;23;20461;-85
2021/08/22 07:43:42;;;;;;;151.45;63.97;;;17.40;99.90;;;;;;6124412;23;20036;-85
2021/08/22 07:46:08;;;;;;;112.50;58.85;;;17.40;99.90;;;;;;6152355;23;20013;-85
2021/08/22 07:48:34;;;;;;;144.38;63.30;;;17.40;99.90;;;;;;6153459;23;20013;-84
2021/08/22 07:50:59;;;;;;;120.60;57.35;;;17.40;99.90;;;;;;6150497;23;20088;-85
2021/08/22 07:53:25;;;;;;;138.90;59.20;;;17.50;99.90;;;;;;6126531;23;20342;-85
2021/08/22 07:55:51;;;;;;;131.40;59.97;;;17.50;99.90;;;;;;6126799;23;20017;-85
2021/08/22 07:58:17;;;;;;;101.15;54.35;;;17.50;99.90;;;;;;6128413;23;20045;-86
2021/08/22 08:00:43;;;;;;;95.03;52.92;;;17.60;99.90;;;;;;6125369;23;20724;-85
2021/08/22 08:03:09;;;;;;;95.47;52.78;;;17.60;99.90;;;;;;6124913;23;20009;-85
2021/08/22 08:05:35;;;;;;;105.13;52.80;;;17.70;99.90;;;;;;6124029;23;20093;-85
2021/08/22 08:08:01;;;;;;;107.65;54.65;;;17.70;99.90;;;;;;6149348;23;20040;-85
2021/08/22 08:10:27;;;;;;;105.10;54.67;;;17.70;99.90;;;;;;6124381;23;20017;-85
2021/08/22 08:12:54;;;;;;;87.78;48.90;;;17.80;99.90;;;;;;6124784;23;20516;-85
2021/08/22 08:15:22;;;;;;;80.72;45.47;;;17.80;99.90;;;;;;6149002;23;20013;-84
2021/08/22 08:17:48;;;;;;;78.15;45.83;;;17.80;99.90;;;;;;6149657;23;20385;-85
2021/08/22 08:20:14;;;;;;;71.07;44.50;;;17.80;99.90;;;;;;6147952;23;20295;-85
2021/08/22 08:22:40;;;;;;;82.00;47.17;;;17.80;99.90;;;;;;6122316;23;20017;-85
2021/08/22 08:25:08;;;;;;;78.22;45.65;;;17.90;99.90;;;;;;6122505;23;20422;-84
2021/08/22 08:27:35;;;;;;;83.50;47.80;;;17.90;99.90;;;;;;6146608;23;20676;-84
2021/08/22 08:30:01;;;;;;;76.28;47.40;;;17.90;99.90;;;;;;6148486;23;20041;-86
2021/08/22 08:32:27;;;;;;;91.57;49.08;;;17.90;99.90;;;;;;6123207;23;20093;-85
2021/08/22 08:34:53;;;;;;;78.68;47.10;;;18.00;99.90;;;;;;6124175;23;20418;-85
2021/08/22 08:37:20;;;;;;;68.72;43.45;;;18.00;99.90;;;;;;6122620;23;20462;-85
2021/08/22 08:39:46;;;;;;;63.78;41.92;;;18.00;99.90;;;;;;6123696;23;20013;-85
2021/08/22 08:42:23;;;;;;;60.55;39.05;;;18.10;99.90;;;;;;6123754;23;20323;-86
2021/08/22 08:44:57;;;;;;;60.17;38.70;;;18.10;99.90;;;;;;6151442;23;20014;-85
2021/08/22 08:47:31;;;;;;;53.42;37.17;;;18.10;99.90;;;;;;6148063;23;20013;-85
2021/08/22 08:49:58;;;;;;;39.92;29.83;;;18.00;99.90;;;;;;6149258;23;20013;-83
2021/08/22 08:52:42;;;;;;;39.67;29.58;;;18.00;99.90;;;;;;6125209;23;20047;-85
2021/08/22 08:55:36;;;;;;;33.90;26.98;;;18.00;99.90;;;;;;6148213;23;20104;-86
2021/08/22 08:58:02;;;;;;;42.35;30.40;;;18.10;99.90;;;;;;6151432;23;20022;-85
2021/08/22 09:00:29;;;;;;;31.85;25.23;;;18.20;99.90;;;;;;6150380;23;20020;-85
2021/08/22 09:02:56;;;;;;;23.77;20.77;;;18.30;99.90;;;;;;6124798;23;20017;-87
2021/08/22 09:06:05;;;;;;;24.23;20.73;;;18.50;99.90;;;;;;6149383;23;20480;-86
2021/08/22 09:08:57;;;;;;;21.40;18.90;;;18.60;99.90;;;;;;6125498;23;20101;-86
2021/08/22 09:12:00;;;;;;;20.83;17.80;;;18.70;99.90;;;;;;6148683;23;20454;-87
2021/08/22 09:14:38;;;;;;;20.73;18.55;;;18.70;99.90;;;;;;6148703;23;20458;-87
2021/08/22 09:17:42;;;;;;;22.52;18.95;;;18.60;99.90;;;;;;6124881;23;20519;-86
2021/08/22 09:20:35;;;;;;;23.77;21.23;;;18.60;99.90;;;;;;6149618;23;20014;-87
2021/08/22 09:23:39;;;;;;;24.42;22.02;;;18.50;99.90;;;;;;6148143;23;20088;-86
2021/08/22 09:26:35;;;;;;;28.30;24.98;;;18.40;99.90;;;;;;6149939;23;20013;-87
2021/08/22 09:29:28;;;;;;;31.92;28.35;;;18.30;99.90;;;;;;6159122;23;20350;-88
2021/08/22 09:32:31;;;;;;;33.05;29.45;;;18.30;99.90;;;;;;6158683;23;20386;-85
2021/08/22 09:35:37;;;;;;;32.20;28.70;;;18.30;99.90;;;;;;6151023;23;20084;-87
2021/08/22 09:38:40;;;;;;;35.25;31.38;;;18.40;99.90;;;;;;6078347;23;20362;-87
2021/08/22 09:41:24;;;;;;;29.17;26.23;;;18.60;99.90;;;;;;6147937;23;20009;-87
2021/08/22 09:44:48;;;;;;;28.52;25.67;;;18.80;99.90;;;;;;6122940;23;20013;-87
2021/08/22 09:47:55;;;;;;;31.67;28.23;;;18.90;99.90;;;;;;6120039;23;20101;-86
2021/08/22 09:51:01;;;;;;;28.02;25.15;;;19.00;99.90;;;;;;6124612;23;20060;-88
2021/08/22 09:53:43;;;;;;;29.55;26.45;;;19.00;99.90;;;;;;6124424;23;20335;-86
2021/08/22 09:56:45;;;;;;;28.17;25.35;;;19.10;99.90;;;;;;6118057;23;20450;-88
2021/08/22 10:00:07;;;;;;;26.92;24.05;;;19.10;99.90;;;;;;6147503;23;20358;-88
2021/08/22 10:03:05;;;;;;;27.67;24.77;;;19.10;99.90;;;;;;6148243;23;20021;-89
2021/08/22 10:05:56;;;;;;;24.30;21.70;;;19.20;99.90;;;;;;6159289;23;20016;-90
2021/08/22 10:09:02;;;;;;;22.88;20.58;;;19.30;99.90;;;;;;6084875;23;20370;-90
2021/08/22 10:11:39;;;;;;;19.65;17.40;;;19.30;99.90;;;;;;6028921;23;20038;-88
2021/08/22 10:14:11;;;;;;;20.55;18.45;;;19.40;99.90;;;;;;6063704;23;20084;-88
2021/08/22 10:16:38;;;;;;;18.95;17.15;;;19.50;99.90;;;;;;6039847;23;20065;-88
2021/08/22 10:19:08;;;;;;;24.27;19.00;;;19.50;99.90;;;;;;6088345;23;20034;-89
2021/08/22 10:21:35;;;;;;;15.68;13.52;;;19.60;99.90;;;;;;6087721;23;20019;-87
2021/08/22 10:24:10;;;;;;;16.38;14.77;;;19.60;99.90;;;;;;6040252;23;20447;-88
2021/08/22 10:26:48;;;;;;;14.70;13.27;;;19.60;99.90;;;;;;6088666;23;20015;-87
2021/08/22 10:29:24;;;;;;;16.00;14.40;;;19.60;99.90;;;;;;6087445;23;20029;-87
2021/08/22 10:31:50;;;;;;;15.50;14.00;;;19.50;99.90;;;;;;6062742;23;20386;-87
2021/08/22 10:34:16;;;;;;;14.18;12.73;;;19.50;99.90;;;;;;6123145;23;20033;-89
2021/08/22 10:36:42;;;;;;;12.73;11.43;;;19.40;99.90;;;;;;6148731;23;20041;-88
2021/08/22 10:39:25;;;;;;;13.50;12.02;;;19.40;99.90;;;;;;6148238;23;20072;-87
2021/08/22 10:41:53;;;;;;;;;;;19.40;99.90;;;;;;6150170;23;20133;-89
2021/08/22 10:44:41;;;;;;;15.77;14.10;;;19.40;99.90;;;;;;6124018;23;19912;-87
2021/08/22 10:47:10;;;;;;;16.92;15.23;;;19.40;99.90;;;;;;6123568;23;20009;-88
2021/08/22 10:49:55;;;;;;;16.90;15.23;;;19.50;99.90;;;;;;6123154;23;20017;-87
2021/08/22 10:52:34;;;;;;;16.05;14.35;;;19.70;99.90;;;;;;6123084;23;20037;-88
2021/08/22 10:55:12;;;;;;;14.50;13.00;;;19.80;99.90;;;;;;6147499;23;20520;-86
2021/08/22 10:57:44;;;;;;;16.02;13.27;;;19.90;99.90;;;;;;6157720;23;20014;-87
2021/08/22 11:00:34;;;;;;;13.25;11.88;;;20.00;99.90;;;;;;6146155;23;20420;-86
2021/08/22 11:03:00;;;;;;;15.13;13.63;;;20.10;99.90;;;;;;6157249;23;20017;-86
2021/08/22 11:05:36;;;;;;;15.98;13.90;;;20.20;99.90;;;;;;6147344;23;20009;-87
2021/08/22 11:08:18;;;;;;;16.85;14.43;;;20.30;99.90;;;;;;6142313;23;20099;-86
2021/08/22 11:11:22;;;;;;;18.17;12.85;;;20.40;99.90;;;;;;6120902;23;20020;-85
2021/08/22 11:13:53;;;;;;;16.80;14.27;;;20.60;99.90;;;;;;6122383;23;20461;-85
2021/08/22 11:16:19;;;;;;;16.88;15.07;;;20.70;99.90;;;;;;6147080;23;20027;-89
2021/08/22 11:18:46;;;;;;;16.52;14.43;;;20.80;99.90;;;;;;6148519;23;20013;-84
2021/08/22 11:21:13;;;;;;;15.75;14.00;;;20.90;99.90;;;;;;6149491;23;20013;-85
2021/08/22 11:23:39;;;;;;;16.05;14.35;;;21.00;99.90;;;;;;6150702;23;20009;-86
2021/08/22 11:26:10;;;;;;;15.40;13.77;;;21.10;99.90;;;;;;6150581;23;20032;-88
2021/08/22 11:28:37;;;;;;;21.98;15.05;;;21.10;99.20;;;;;;6148342;23;20017;-86
2021/08/22 11:31:15;;;;;;;21.02;17.70;;;21.00;98.90;;;;;;6122675;23;20394;-85
2021/08/22 11:33:41;;;;;;;23.23;17.08;;;20.90;99.00;;;;;;6123713;23;20012;-86
2021/08/22 11:36:07;;;;;;;24.90;17.92;;;20.80;99.60;;;;;;6124012;23;20025;-84
2021/08/22 11:38:33;;;;;;;26.13;17.38;;;20.70;99.80;;;;;;6149104;23;20021;-88
2021/08/22 11:41:02;;;;;;;22.95;16.08;;;20.60;99.90;;;;;;6147891;23;20006;-85
2021/08/22 11:43:28;;;;;;;19.67;15.85;;;20.60;99.60;;;;;;6148328;23;20048;-85
2021/08/22 11:45:54;;;;;;;24.92;17.13;;;20.60;99.90;;;;;;6124289;23;20021;-86
2021/08/22 11:48:21;;;;;;;21.77;17.52;;;20.60;99.90;;;;;;6124905;23;20045;-86
2021/08/22 11:50:49;;;;;;;17.95;13.73;;;20.60;99.90;;;;;;6124386;23;20016;-85
2021/08/22 11:54:00;;;;;;;18.30;13.63;;;20.60;99.90;;;;;;6148643;23;20035;-87
2021/08/22 11:56:50;;;;;;;19.35;14.55;;;20.60;99.90;;;;;;6074622;23;20166;-88
2021/08/22 11:59:26;;;;;;;21.60;15.50;;;20.70;99.90;;;;;;6065575;23;20034;-89
2021/08/22 12:02:13;;;;;;;27.02;21.05;;;20.80;99.90;;;;;;6041340;23;20025;-88
2021/08/22 12:04:39;;;;;;;21.90;17.35;;;20.80;99.90;;;;;;6068207;23;20388;-86
2021/08/22 12:07:05;;;;;;;27.25;20.05;;;20.90;99.90;;;;;;6067405;23;20066;-87
2021/08/22 12:09:31;;;;;;;26.38;21.23;;;20.90;99.90;;;;;;6042785;23;20506;-87
2021/08/22 12:11:57;;;;;;;26.17;21.17;;;21.00;99.80;;;;;;6067382;23;20069;-88
2021/08/22 12:14:30;;;;;;;18.90;16.75;;;21.00;99.90;;;;;;6066919;23;20049;-87
2021/08/22 12:16:58;;;;;;;24.83;19.23;;;21.10;99.90;;;;;;6067886;23;20362;-88
2021/08/22 12:19:26;;;;;;;21.27;16.17;;;21.20;99.30;;;;;;6043081;23;20014;-89
2021/08/22 12:21:53;;;;;;;22.33;16.08;;;21.20;99.20;;;;;;6090268;23;20014;-85
2021/08/22 12:24:47;;;;;;;20.13;15.52;;;21.30;99.20;;;;;;6067409;23;20025;-88
2021/08/22 12:27:25;;;;;;;17.02;14.23;;;21.30;98.90;;;;;;6126058;23;20093;-87
2021/08/22 12:30:09;;;;;;;20.85;16.13;;;21.30;98.60;;;;;;6160068;23;20473;-87
2021/08/22 12:32:39;;;;;;;18.90;16.02;;;21.30;98.10;;;;;;6126293;23;20058;-87
2021/08/22 12:35:07;;;;;;;15.05;11.02;;;21.20;98.00;;;;;;6150993;23;20359;-87
2021/08/22 12:37:33;;;;;;;11.98;10.07;;;21.20;97.90;;;;;;6126542;23;20036;-86
2021/08/22 12:40:00;;;;;;;13.18;10.75;;;21.20;97.80;;;;;;6150911;23;20092;-91
2021/08/22 12:42:26;;;;;;;17.45;13.73;;;21.10;97.80;;;;;;6150850;23;20401;-87
2021/08/22 12:44:53;;;;;;;19.33;14.68;;;21.10;98.10;;;;;;6126897;23;20005;-91